Time;durP1;ratioP1;P1;durP2;ratioP2;P2;SDS_P1;SDS_P2;PMS_P1;PMS_P2;Temp;Humidity;BMP_temperature;BMP_pressure;BME280_temperature;BME280_humidity;BME280_pressure;Samples;Min_cycle;Max_cycle;Signal;HPM_P1;HPM_P2
2021/05/17 00:00:17;;;;;;;3.95;1.92;;;17.80;64.70;;;;;;10553265;28;20495;-54
2021/05/17 00:05:18;;;;;;;2.83;1.70;;;17.80;64.70;;;;;;10538904;28;20093;-53
2021/05/17 00:10:20;;;;;;;2.85;1.80;;;17.80;64.60;;;;;;10546892;28;20028;-49
2021/05/17 00:15:21;;;;;;;2.33;1.65;;;17.80;64.50;;;;;;10552421;28;20436;-53
2021/05/17 00:20:25;;;;;;;2.67;1.85;;;17.80;64.60;;;;;;10560832;28;20028;-53
2021/05/17 00:25:27;;;;;;;2.90;2.08;;;17.80;64.60;;;;;;10538819;28;20039;-51
2021/05/17 00:30:31;;;;;;;2.53;1.73;;;17.80;64.60;;;;;;10544602;28;20071;-54
2021/05/17 00:35:32;;;;;;;2.25;1.77;;;17.80;64.60;;;;;;10546749;28;20035;-54
2021/05/17 00:40:33;;;;;;;2.95;1.65;;;17.80;64.60;;;;;;10559471;28;20052;-52
2021/05/17 00:45:34;;;;;;;2.13;1.50;;;17.80;64.60;;;;;;10545969;28;20480;-53
2021/05/17 00:50:35;;;;;;;2.45;1.48;;;17.80;64.50;;;;;;10546219;28;20088;-53
2021/05/17 00:55:38;;;;;;;2.38;1.45;;;17.80;64.50;;;;;;10559959;28;20506;-53
2021/05/17 01:00:39;;;;;;;3.30;2.33;;;17.80;64.40;;;;;;10546356;28;20512;-52
2021/05/17 01:05:40;;;;;;;2.22;1.58;;;17.80;64.40;;;;;;10545460;28;20383;-50
2021/05/17 01:10:43;;;;;;;2.70;1.10;;;17.80;64.40;;;;;;10559351;28;20041;-54
2021/05/17 01:15:48;;;;;;;1.90;1.30;;;17.80;64.30;;;;;;10545054;28;20097;-51
2021/05/17 01:20:49;;;;;;;3.38;1.45;;;17.80;64.30;;;;;;10549787;28;20051;-51
2021/05/17 01:25:56;;;;;;;2.95;1.40;;;17.80;64.20;;;;;;10526882;28;20042;-53
2021/05/17 01:31:03;;;;;;;2.60;1.75;;;17.80;64.20;;;;;;10561345;28;20127;-51
2021/05/17 01:36:06;;;;;;;1.98;1.17;;;17.80;64.10;;;;;;10544683;28;20352;-52
2021/05/17 01:41:10;;;;;;;2.33;1.30;;;17.80;64.10;;;;;;10539355;28;20476;-54
2021/05/17 01:46:31;;;;;;;2.20;1.33;;;17.80;64.10;;;;;;10555412;28;20028;-50
2021/05/17 01:51:33;;;;;;;1.90;1.30;;;17.80;64.10;;;;;;10543544;28;20044;-53
2021/05/17 01:56:34;;;;;;;2.20;1.20;;;17.80;64.10;;;;;;10526282;28;20028;-50
2021/05/17 02:01:34;;;;;;;1.98;1.17;;;17.80;64.10;;;;;;10548047;28;20039;-55
2021/05/17 02:06:35;;;;;;;2.50;1.25;;;17.80;64.00;;;;;;10547008;28;20150;-50
2021/05/17 02:11:36;;;;;;;2.50;1.27;;;17.80;64.00;;;;;;10538473;28;20028;-52
2021/05/17 02:16:37;;;;;;;2.92;1.85;;;17.80;64.00;;;;;;10560373;28;20093;-49
2021/05/17 02:21:38;;;;;;;1.23;1.00;;;17.80;64.00;;;;;;10565815;28;20074;-53
2021/05/17 02:26:39;;;;;;;2.92;1.42;;;17.80;64.00;;;;;;10524899;28;20036;-52
2021/05/17 02:31:41;;;;;;;1.90;1.13;;;17.80;63.90;;;;;;10541827;28;20384;-53
2021/05/17 02:36:42;;;;;;;1.65;1.20;;;17.80;63.90;;;;;;10542199;28;20387;-50
2021/05/17 02:41:43;;;;;;;2.60;1.20;;;17.80;63.80;;;;;;10548880;28;20035;-48
2021/05/17 02:46:44;;;;;;;2.53;1.20;;;17.80;63.80;;;;;;10533077;28;20078;-48
2021/05/17 02:51:45;;;;;;;1.70;1.05;;;17.80;63.80;;;;;;10527912;28;20119;-49
2021/05/17 02:57:09;;;;;;;3.40;1.33;;;17.80;63.80;;;;;;10523879;28;20077;-50
2021/05/17 03:02:16;;;;;;;5.00;1.45;;;17.80;63.80;;;;;;10546457;28;20492;-49
2021/05/17 03:07:18;;;;;;;2.38;1.73;;;17.80;63.80;;;;;;10523740;28;20452;-50
2021/05/17 03:12:21;;;;;;;1.70;1.10;;;17.80;63.90;;;;;;10535807;28;20101;-49
2021/05/17 03:17:22;;;;;;;2.40;1.52;;;17.70;63.80;;;;;;10561853;28;20481;-58
2021/05/17 03:22:24;;;;;;;2.70;1.45;;;17.70;63.80;;;;;;10538683;28;20119;-59
2021/05/17 03:27:30;;;;;;;1.88;1.00;;;17.80;63.90;;;;;;10540047;28;20085;-59
2021/05/17 03:32:30;;;;;;;2.25;1.02;;;17.70;63.90;;;;;;10539645;28;20078;-59
2021/05/17 03:37:31;;;;;;;2.13;1.30;;;17.70;63.90;;;;;;10539594;28;20108;-59
2021/05/17 03:42:32;;;;;;;2.72;1.52;;;17.70;63.90;;;;;;10546966;28;20070;-59
2021/05/17 03:47:33;;;;;;;3.13;1.20;;;17.70;63.80;;;;;;10521214;28;20046;-58
2021/05/17 03:52:34;;;;;;;2.53;1.42;;;17.70;63.80;;;;;;10537622;28;20074;-58
2021/05/17 03:57:35;;;;;;;2.40;1.40;;;17.80;63.80;;;;;;10536524;28;20036;-58
2021/05/17 04:02:37;;;;;;;2.53;1.20;;;17.80;63.80;;;;;;10537083;28;20036;-59
2021/05/17 04:17:58;;;;;;;2.35;1.38;;;17.70;63.80;;;;;;10552897;28;20036;-58
2021/05/17 04:23:00;;;;;;;2.15;1.38;;;17.70;63.70;;;;;;10554391;28;20032;-59
2021/05/17 04:28:00;;;;;;;3.00;1.42;;;17.70;63.70;;;;;;10541889;28;20047;-59
2021/05/17 04:33:01;;;;;;;2.28;1.20;;;17.70;63.70;;;;;;10552131;28;20474;-59
2021/05/17 04:38:02;;;;;;;2.30;0.98;;;17.70;63.70;;;;;;10538124;28;20028;-59
2021/05/17 04:43:03;;;;;;;2.17;1.13;;;17.70;63.70;;;;;;10559705;28;20079;-59
2021/05/17 04:48:05;;;;;;;2.08;1.45;;;17.70;63.60;;;;;;10560236;28;20025;-59
2021/05/17 04:53:05;;;;;;;2.80;1.35;;;17.70;63.60;;;;;;10561188;28;20028;-59
2021/05/17 04:58:08;;;;;;;2.00;1.20;;;17.70;63.60;;;;;;10537820;28;20028;-58
2021/05/17 05:03:09;;;;;;;1.67;1.15;;;17.70;63.60;;;;;;10539128;28;20028;-57
2021/05/17 05:08:10;;;;;;;3.78;1.23;;;17.70;63.60;;;;;;10562050;28;20039;-53
2021/05/17 05:13:10;;;;;;;3.85;1.30;;;17.70;64.20;;;;;;10561091;28;20103;-55
2021/05/17 05:18:11;;;;;;;4.18;1.55;;;17.70;65.20;;;;;;10569440;28;20107;-56
2021/05/17 05:23:17;;;;;;;2.83;1.15;;;17.70;65.10;;;;;;10555242;28;20024;-56
2021/05/17 05:28:21;;;;;;;3.90;1.50;;;17.70;65.20;;;;;;10569643;28;20027;-56
2021/05/17 05:33:22;;;;;;;3.70;1.30;;;17.70;65.60;;;;;;10574117;28;20451;-53
2021/05/17 05:38:23;;;;;;;2.25;1.20;;;17.70;65.80;;;;;;10564483;28;20036;-56
2021/05/17 05:43:24;;;;;;;5.53;1.50;;;17.80;66.20;;;;;;10545483;28;20048;-56
2021/05/17 05:48:25;;;;;;;4.68;1.33;;;17.80;66.20;;;;;;10543815;28;20039;-58
2021/05/17 05:53:26;;;;;;;9.02;2.00;;;17.80;65.80;;;;;;10553021;28;20099;-59
2021/05/17 05:58:26;;;;;;;15.68;2.25;;;17.80;66.30;;;;;;10584532;28;20056;-59
2021/05/17 06:03:27;;;;;;;13.02;2.42;;;17.80;66.30;;;;;;10572540;28;20111;-59
2021/05/17 06:08:28;;;;;;;11.35;2.42;;;17.80;66.40;;;;;;10553205;28;20043;-59
2021/05/17 06:13:30;;;;;;;11.98;2.70;;;17.80;66.00;;;;;;10568802;28;20590;-58
2021/05/17 06:18:31;;;;;;;10.23;2.42;;;17.70;65.70;;;;;;10554309;28;20045;-58
2021/05/17 06:23:33;;;;;;;8.43;2.30;;;17.70;65.60;;;;;;10561631;28;20035;-58
2021/05/17 06:28:34;;;;;;;7.60;1.52;;;17.70;65.60;;;;;;10558294;28;20123;-59
2021/05/17 06:33:36;;;;;;;7.20;1.77;;;17.70;65.50;;;;;;10561643;28;20028;-59
2021/05/17 06:38:39;;;;;;;14.18;2.55;;;17.70;65.40;;;;;;10519896;28;20053;-58
2021/05/17 06:43:41;;;;;;;8.30;2.28;;;17.70;66.00;;;;;;10567949;28;20056;-59
2021/05/17 06:48:42;;;;;;;7.97;1.85;;;17.70;65.80;;;;;;10559490;28;20532;-57
2021/05/17 06:53:45;;;;;;;11.05;2.33;;;17.70;65.70;;;;;;10547083;28;20028;-58
2021/05/17 06:58:57;;;;;;;11.45;2.20;;;17.70;65.60;;;;;;10542207;28;20124;-58
2021/05/17 07:03:59;;;;;;;8.25;2.50;;;17.70;65.50;;;;;;10554824;28;20460;-59
2021/05/17 07:14:19;;;;;;;4.77;1.83;;;17.70;65.40;;;;;;10558770;28;20507;-59
2021/05/17 07:19:20;;;;;;;5.78;1.80;;;17.70;65.40;;;;;;10550161;28;20433;-58
2021/05/17 07:24:21;;;;;;;6.53;2.58;;;17.70;65.40;;;;;;10533332;28;20042;-56
2021/05/17 07:29:22;;;;;;;5.57;1.52;;;17.70;65.40;;;;;;10514697;28;20036;-58
2021/05/17 07:34:23;;;;;;;9.57;2.40;;;17.60;65.40;;;;;;10532540;28;20036;-58
2021/05/17 07:39:24;;;;;;;7.07;2.35;;;17.60;65.30;;;;;;10557858;28;20040;-58
2021/05/17 07:44:25;;;;;;;4.55;1.60;;;17.60;65.30;;;;;;10559323;28;20034;-58
2021/05/17 07:49:37;;;;;;;5.93;1.88;;;17.60;65.30;;;;;;10527605;28;20024;-58
2021/05/17 07:54:38;;;;;;;9.88;2.45;;;17.60;65.20;;;;;;10573618;28;20024;-58
2021/05/17 07:59:39;;;;;;;5.45;2.03;;;17.70;65.20;;;;;;10548134;28;20100;-57
2021/05/17 08:04:40;;;;;;;11.02;1.98;;;17.70;65.10;;;;;;10554095;28;20458;-56
2021/05/17 08:09:40;;;;;;;9.70;2.25;;;17.70;65.30;;;;;;10560040;28;20118;-56
2021/05/17 08:14:42;;;;;;;7.28;2.17;;;17.70;66.20;;;;;;10559523;28;20103;-55
2021/05/17 08:19:43;;;;;;;10.95;2.15;;;17.70;66.40;;;;;;10562619;28;20024;-57
2021/05/17 08:24:43;;;;;;;9.95;2.22;;;17.70;66.20;;;;;;10514546;28;20057;-58
2021/05/17 08:29:44;;;;;;;12.52;2.33;;;17.70;65.80;;;;;;10538257;28;20365;-57
2021/05/17 08:34:45;;;;;;;9.57;1.98;;;17.80;65.70;;;;;;10538061;28;20028;-58
2021/05/17 08:39:45;;;;;;;6.30;1.85;;;17.70;65.60;;;;;;10573539;28;20114;-58
2021/05/17 08:44:46;;;;;;;8.30;2.17;;;17.70;65.60;;;;;;10578730;28;20089;-56
2021/05/17 08:49:47;;;;;;;7.15;1.90;;;17.70;65.70;;;;;;10579393;28;20378;-57
2021/05/17 08:54:47;;;;;;;13.85;2.50;;;17.70;66.30;;;;;;10584300;28;20532;-57
2021/05/17 08:59:50;;;;;;;6.97;1.85;;;17.70;66.40;;;;;;10586114;28;20103;-57
2021/05/17 09:05:24;;;;;;;10.95;2.17;;;17.70;66.20;;;;;;10564262;28;20092;-57
2021/05/17 09:10:31;;;;;;;10.15;2.60;;;17.70;66.70;;;;;;10576995;28;20024;-58
2021/05/17 09:15:44;;;;;;;7.47;1.83;;;17.70;66.60;;;;;;10564185;28;20540;-57
2021/05/17 09:20:48;;;;;;;5.85;1.73;;;17.70;66.90;;;;;;10551004;28;20028;-58
2021/05/17 09:26:13;;;;;;;9.57;2.20;;;17.70;66.60;;;;;;10544489;28;20459;-58
2021/05/17 09:31:25;;;;;;;12.38;2.20;;;17.70;66.60;;;;;;10536683;28;20040;-58
2021/05/17 09:36:37;;;;;;;6.95;2.25;;;17.70;66.50;;;;;;10528565;28;20089;-58
2021/05/17 09:41:55;;;;;;;7.38;1.88;;;17.70;66.40;;;;;;10550312;28;20044;-58
2021/05/17 09:47:08;;;;;;;10.60;2.53;;;17.70;66.30;;;;;;10545132;28;20395;-58
2021/05/17 09:52:34;;;;;;;6.28;1.58;;;17.70;66.30;;;;;;10553569;28;20378;-58
2021/05/17 09:57:47;;;;;;;6.50;1.90;;;17.70;66.30;;;;;;10585533;28;20486;-58
2021/05/17 10:02:50;;;;;;;5.75;1.85;;;17.70;66.10;;;;;;10547244;28;20460;-56
2021/05/17 10:07:53;;;;;;;5.75;1.88;;;17.70;66.00;;;;;;10542542;28;20020;-58
2021/05/17 10:12:57;;;;;;;4.70;1.45;;;17.70;66.00;;;;;;10524099;28;20048;-58
2021/05/17 10:18:00;;;;;;;4.15;1.60;;;17.70;66.10;;;;;;10552820;28;20441;-57
2021/05/17 10:23:01;;;;;;;3.08;1.48;;;17.70;65.90;;;;;;10555372;28;20054;-58
2021/05/17 10:28:15;;;;;;;3.90;1.70;;;17.70;65.90;;;;;;10541835;28;20460;-58
2021/05/17 10:33:27;;;;;;;2.78;1.38;;;17.70;65.80;;;;;;10524300;28;20024;-57
2021/05/17 10:49:33;;;;;;;5.95;1.67;;;17.60;65.70;;;;;;10564272;28;20479;-57
2021/05/17 10:54:41;;;;;;;6.53;2.08;;;17.70;66.70;;;;;;10583177;28;20024;-57
2021/05/17 11:05:21;;;;;;;5.57;1.33;;;17.70;67.10;;;;;;10541441;28;20048;-55
2021/05/17 11:10:40;;;;;;;5.70;1.73;;;17.70;66.90;;;;;;10564426;28;20024;-57
2021/05/17 11:15:48;;;;;;;5.82;2.03;;;17.70;67.00;;;;;;10540044;28;20012;-58
2021/05/17 11:21:12;;;;;;;4.38;1.55;;;17.70;67.10;;;;;;10564690;28;20035;-59
2021/05/17 11:26:15;;;;;;;3.25;1.20;;;17.70;66.50;;;;;;10508229;28;20611;-58
2021/05/17 11:36:39;;;;;;;4.55;1.92;;;17.80;66.50;;;;;;10540098;28;20046;-58
2021/05/17 11:41:57;;;;;;;4.15;1.38;;;17.80;66.50;;;;;;10547308;28;20051;-58
2021/05/17 11:46:59;;;;;;;4.22;1.50;;;17.80;66.50;;;;;;10541079;28;20077;-58
2021/05/17 11:52:08;;;;;;;2.72;1.40;;;17.80;66.20;;;;;;10537870;28;20020;-58
2021/05/17 11:57:10;;;;;;;;;;;17.80;66.20;;;;;;10569177;28;20023;-57
2021/05/17 12:02:11;;;;;;;3.78;1.60;;;17.80;66.10;;;;;;10580630;28;19915;-57
2021/05/17 12:07:15;;;;;;;2.47;1.73;;;17.80;66.10;;;;;;10580786;28;20020;-57
2021/05/17 12:12:28;;;;;;;4.63;1.40;;;17.80;66.10;;;;;;10580578;28;20028;-58
2021/05/17 12:17:34;;;;;;;2.22;0.95;;;17.80;66.20;;;;;;10543671;28;20503;-58
2021/05/17 12:22:41;;;;;;;2.85;1.08;;;17.80;66.10;;;;;;10538268;28;20024;-58
2021/05/17 12:27:44;;;;;;;2.25;1.33;;;17.80;66.10;;;;;;10528331;28;20028;-58
2021/05/17 12:33:01;;;;;;;6.00;1.73;;;17.80;66.00;;;;;;10546686;28;20020;-56
2021/05/17 12:38:14;;;;;;;1.92;1.27;;;17.80;65.90;;;;;;10546516;28;20115;-57
2021/05/17 12:43:17;;;;;;;8.05;2.10;;;17.80;65.90;;;;;;10543704;28;20051;-59
2021/05/17 12:48:30;;;;;;;20.52;2.97;;;17.80;66.30;;;;;;10546251;28;20043;-57
2021/05/17 12:53:31;;;;;;;31.77;4.45;;;17.90;66.50;;;;;;10529312;28;20028;-58
2021/05/17 12:58:38;;;;;;;34.70;5.68;;;17.90;67.10;;;;;;10551167;28;20106;-59
2021/05/17 13:04:09;;;;;;;33.72;5.43;;;17.90;67.30;;;;;;10569718;28;20128;-57
2021/05/17 13:09:20;;;;;;;;;;;17.90;67.80;;;;;;10583913;28;20542;-57
2021/05/17 13:14:23;;;;;;;19.88;3.28;;;18.00;67.50;;;;;;10584287;28;20007;-59
2021/05/17 13:19:44;;;;;;;19.20;3.22;;;17.90;67.10;;;;;;10568611;28;20019;-59
2021/05/17 13:30:13;;;;;;;16.23;3.85;;;17.90;66.90;;;;;;10544039;28;20071;-59
2021/05/17 13:35:14;;;;;;;8.43;2.50;;;17.90;66.90;;;;;;10525404;28;20024;-58
2021/05/17 13:40:16;;;;;;;16.95;3.50;;;18.00;66.70;;;;;;10543622;28;20056;-59
2021/05/17 13:45:19;;;;;;;12.38;2.90;;;17.90;66.60;;;;;;10557181;28;20085;-57
2021/05/17 13:50:19;;;;;;;11.77;2.80;;;18.00;66.60;;;;;;10546250;28;20036;-57
2021/05/17 13:55:20;;;;;;;14.95;2.90;;;18.00;67.30;;;;;;10552333;28;20491;-57
2021/05/17 14:00:22;;;;;;;26.13;3.80;;;18.00;67.90;;;;;;10543390;28;20036;-58
2021/05/17 14:05:23;;;;;;;26.25;3.60;;;18.00;67.80;;;;;;10566232;28;20061;-58
2021/05/17 14:10:23;;;;;;;15.15;3.22;;;18.00;68.00;;;;;;10567380;28;20380;-57
2021/05/17 14:15:24;;;;;;;16.75;3.08;;;18.00;68.10;;;;;;10567125;28;20051;-57
2021/05/17 14:20:25;;;;;;;19.75;4.80;;;17.90;68.20;;;;;;10553362;28;20035;-57
2021/05/17 14:25:26;;;;;;;28.08;4.10;;;18.00;68.30;;;;;;10542128;28;20028;-58
2021/05/17 14:30:27;;;;;;;26.15;5.38;;;18.00;68.50;;;;;;10560958;28;20039;-59
2021/05/17 14:35:29;;;;;;;24.80;5.10;;;18.00;68.50;;;;;;10581373;28;20391;-57
2021/05/17 14:40:30;;;;;;;21.48;3.60;;;18.00;68.70;;;;;;10582197;28;20322;-58
2021/05/17 14:45:31;;;;;;;18.65;4.78;;;18.00;68.70;;;;;;10574736;28;20031;-57
2021/05/17 14:50:31;;;;;;;17.38;4.47;;;17.90;68.80;;;;;;10579969;28;20096;-58
2021/05/17 14:55:32;;;;;;;17.58;4.40;;;18.00;69.00;;;;;;10581639;28;20486;-58
2021/05/17 15:00:33;;;;;;;18.52;3.95;;;18.00;69.00;;;;;;10581680;28;20019;-58
2021/05/17 15:05:34;;;;;;;20.67;3.67;;;18.00;69.00;;;;;;10581606;28;20023;-58
2021/05/17 15:10:35;;;;;;;25.98;4.63;;;17.90;69.00;;;;;;10545944;28;20475;-57
2021/05/17 15:15:36;;;;;;;22.25;4.35;;;17.90;69.10;;;;;;10523586;28;20020;-58
2021/05/17 15:20:37;;;;;;;20.20;4.90;;;17.90;69.00;;;;;;10566739;28;20033;-60
2021/05/17 15:25:38;;;;;;;25.92;4.80;;;18.00;69.10;;;;;;10541683;28;20031;-59
2021/05/17 15:30:39;;;;;;;29.15;5.35;;;17.90;68.60;;;;;;10540494;28;20051;-59
2021/05/17 15:35:40;;;;;;;16.40;4.40;;;18.00;69.40;;;;;;10557564;28;20035;-57
2021/05/17 15:40:44;;;;;;;18.92;5.03;;;18.00;69.20;;;;;;10522039;28;20055;-57
2021/05/17 15:45:46;;;;;;;24.83;4.90;;;18.00;72.20;;;;;;10552456;28;20055;-58
2021/05/17 15:50:47;;;;;;;12.68;3.88;;;18.10;72.50;;;;;;10561732;28;20036;-57
2021/05/17 15:55:50;;;;;;;8.98;3.85;;;18.10;71.20;;;;;;10546348;28;20024;-56
2021/05/17 16:00:50;;;;;;;18.05;4.30;;;18.10;71.00;;;;;;10554153;28;20031;-57
2021/05/17 16:05:51;;;;;;;15.75;3.40;;;18.10;70.60;;;;;;10542432;28;20458;-57
2021/05/17 16:10:53;;;;;;;9.85;3.45;;;18.10;70.50;;;;;;10559076;28;20031;-56
2021/05/17 16:16:03;;;;;;;8.25;3.17;;;18.10;70.10;;;;;;10543248;28;20053;-58
2021/05/17 16:26:24;;;;;;;18.38;3.47;;;18.20;70.10;;;;;;10552671;28;19912;-57
2021/05/17 16:31:30;;;;;;;10.73;3.88;;;18.10;69.70;;;;;;10564223;28;20103;-57
2021/05/17 16:36:31;;;;;;;10.63;3.17;;;18.10;69.60;;;;;;10526350;28;20076;-57
2021/05/17 16:41:32;;;;;;;15.35;4.05;;;18.10;69.80;;;;;;10558781;28;20071;-57
2021/05/17 16:46:33;;;;;;;21.02;2.80;;;18.00;69.90;;;;;;10567439;28;20027;-55
2021/05/17 16:51:55;;;;;;;12.65;3.10;;;18.10;70.00;;;;;;10567208;28;20383;-58
2021/05/17 16:56:56;;;;;;;10.75;2.88;;;18.10;69.70;;;;;;10537610;28;20400;-58
2021/05/17 17:02:00;;;;;;;11.02;3.28;;;18.00;69.40;;;;;;10543896;28;20118;-57
2021/05/17 17:07:01;;;;;;;9.70;2.85;;;18.00;69.30;;;;;;10540785;28;20070;-56
2021/05/17 17:12:02;;;;;;;7.35;2.58;;;18.10;69.10;;;;;;10541799;28;20557;-55
2021/05/17 17:17:03;;;;;;;10.25;3.42;;;18.10;68.90;;;;;;10547249;28;20364;-57
2021/05/17 17:22:04;;;;;;;5.93;2.40;;;18.00;68.80;;;;;;10550734;28;20487;-56
2021/05/17 17:27:05;;;;;;;12.52;3.95;;;18.00;68.50;;;;;;10568346;28;20027;-56
2021/05/17 17:32:08;;;;;;;9.27;2.38;;;18.00;68.20;;;;;;10560686;28;20038;-56
2021/05/17 17:37:11;;;;;;;10.02;3.05;;;18.00;68.00;;;;;;10575254;28;20039;-56
2021/05/17 17:42:13;;;;;;;5.75;2.15;;;18.00;67.80;;;;;;10572599;28;20043;-53
2021/05/17 17:47:14;;;;;;;5.97;2.03;;;18.00;67.90;;;;;;10550850;28;20035;-56
2021/05/17 17:52:14;;;;;;;5.10;1.73;;;18.00;67.80;;;;;;10554908;28;20436;-56
2021/05/17 17:57:15;;;;;;;6.63;2.20;;;18.00;67.60;;;;;;10561023;28;20059;-56
2021/05/17 18:02:17;;;;;;;5.72;2.20;;;18.00;67.50;;;;;;10561353;28;20596;-56
2021/05/17 18:07:17;;;;;;;5.00;2.10;;;18.00;67.50;;;;;;10563380;28;20038;-56
2021/05/17 18:12:23;;;;;;;6.53;2.08;;;18.00;67.60;;;;;;10560258;28;21469;-56
2021/05/17 18:17:24;;;;;;;4.32;1.90;;;18.00;68.10;;;;;;10559885;28;20107;-55
2021/05/17 18:22:25;;;;;;;4.20;1.73;;;18.00;67.50;;;;;;10561647;28;20031;-56
2021/05/17 18:27:26;;;;;;;6.00;2.40;;;17.90;67.30;;;;;;10558697;28;20051;-56
2021/05/17 18:32:36;;;;;;;6.18;3.13;;;17.90;67.20;;;;;;10558056;28;20381;-55
2021/05/17 18:37:37;;;;;;;3.83;1.77;;;17.90;67.20;;;;;;10545913;28;20075;-56
2021/05/17 18:42:38;;;;;;;5.13;2.13;;;17.90;67.20;;;;;;10556404;28;20054;-55
2021/05/17 18:47:39;;;;;;;3.92;1.65;;;17.90;67.10;;;;;;10558939;28;20015;-55
2021/05/17 18:52:39;;;;;;;2.50;1.55;;;17.90;67.10;;;;;;10559297;28;20037;-56
2021/05/17 18:57:41;;;;;;;4.07;1.80;;;17.90;67.00;;;;;;10544053;28;20031;-56
2021/05/17 19:02:43;;;;;;;3.20;2.45;;;17.90;66.90;;;;;;10558726;28;20016;-56
2021/05/17 19:07:44;;;;;;;9.73;1.80;;;17.90;66.80;;;;;;10558447;28;20023;-56
2021/05/17 19:12:46;;;;;;;4.30;1.73;;;17.90;66.80;;;;;;10546069;28;20028;-55
2021/05/17 19:17:47;;;;;;;5.72;2.03;;;17.90;66.80;;;;;;10543519;28;20074;-55
2021/05/17 19:22:48;;;;;;;4.50;1.98;;;17.80;66.70;;;;;;10558011;28;20031;-56
2021/05/17 19:27:49;;;;;;;5.38;1.92;;;17.80;66.60;;;;;;10557352;28;20092;-55
2021/05/17 19:32:50;;;;;;;4.28;1.95;;;17.80;66.60;;;;;;10535787;28;20131;-54
2021/05/17 19:37:51;;;;;;;4.13;1.85;;;17.80;66.60;;;;;;10555545;28;20027;-55
2021/05/17 19:42:52;;;;;;;4.68;1.83;;;17.80;66.50;;;;;;10553403;28;20040;-55
2021/05/17 19:47:52;;;;;;;13.43;2.03;;;17.80;66.40;;;;;;10557105;28;20031;-55
2021/05/17 19:52:53;;;;;;;3.88;1.60;;;17.80;66.30;;;;;;10565362;28;20035;-53
2021/05/17 19:57:54;;;;;;;6.05;2.45;;;17.80;66.30;;;;;;10544785;28;20020;-55
2021/05/17 20:03:00;;;;;;;4.30;1.90;;;17.80;67.80;;;;;;10538703;28;20097;-55
2021/05/17 20:08:01;;;;;;;8.80;2.83;;;17.80;67.20;;;;;;10557407;28;20575;-56
2021/05/17 20:13:03;;;;;;;5.97;2.00;;;17.80;66.70;;;;;;10561047;28;20108;-56
2021/05/17 20:18:05;;;;;;;4.60;2.05;;;17.80;66.60;;;;;;10550128;28;20035;-55
2021/05/17 20:23:06;;;;;;;5.00;1.73;;;17.80;66.50;;;;;;10568628;28;20035;-55
2021/05/17 20:28:07;;;;;;;5.57;2.20;;;17.80;66.50;;;;;;10567924;28;20033;-55
2021/05/17 20:33:22;;;;;;;4.00;1.70;;;17.80;66.40;;;;;;10563631;28;20037;-56
2021/05/17 20:38:25;;;;;;;3.38;1.85;;;17.80;66.30;;;;;;10564178;28;20032;-56
2021/05/17 20:43:31;;;;;;;5.00;2.05;;;17.80;66.30;;;;;;10560758;28;20345;-56
2021/05/17 20:48:32;;;;;;;4.40;1.90;;;17.80;66.20;;;;;;10565891;28;20042;-56
2021/05/17 20:53:32;;;;;;;3.47;1.80;;;17.80;66.20;;;;;;10538660;28;20038;-55
2021/05/17 20:58:34;;;;;;;3.65;1.75;;;17.70;66.20;;;;;;10560176;28;20040;-54
2021/05/17 21:03:34;;;;;;;3.38;1.45;;;17.80;66.20;;;;;;10562622;28;20533;-56
2021/05/17 21:08:35;;;;;;;4.38;1.65;;;17.80;66.10;;;;;;10544833;28;20078;-54
2021/05/17 21:13:36;;;;;;;3.55;2.15;;;17.80;66.00;;;;;;10562243;28;20555;-55
2021/05/17 21:18:39;;;;;;;3.38;2.00;;;17.80;65.90;;;;;;10570704;28;20032;-55
2021/05/17 21:23:40;;;;;;;4.05;2.03;;;17.80;65.90;;;;;;10553051;28;20050;-55
2021/05/17 21:28:43;;;;;;;2.95;1.58;;;17.80;65.90;;;;;;10545210;28;20031;-55
2021/05/17 21:33:44;;;;;;;2.55;1.55;;;17.80;65.80;;;;;;10544707;28;20434;-55
2021/05/17 21:38:45;;;;;;;3.85;1.80;;;17.80;66.40;;;;;;10544700;28;20671;-56
2021/05/17 21:43:46;;;;;;;3.80;1.70;;;17.80;65.80;;;;;;10568050;28;20117;-55
2021/05/17 21:48:48;;;;;;;3.50;1.85;;;17.70;65.70;;;;;;10554272;28;20384;-56
2021/05/17 21:53:48;;;;;;;3.00;1.77;;;17.80;65.60;;;;;;10544213;28;20035;-55
2021/05/17 21:58:49;;;;;;;4.05;2.08;;;17.70;65.50;;;;;;10568566;28;20033;-55
2021/05/17 22:03:50;;;;;;;2.63;1.67;;;17.80;65.50;;;;;;10525343;28;20028;-55
2021/05/17 22:14:11;;;;;;;2.97;1.60;;;17.80;65.30;;;;;;10533498;28;20475;-56
2021/05/17 22:19:13;;;;;;;3.83;2.05;;;17.80;65.30;;;;;;10573644;28;20024;-56
2021/05/17 22:24:16;;;;;;;4.85;2.38;;;17.80;65.20;;;;;;10542516;28;20024;-55
2021/05/17 22:29:17;;;;;;;2.03;1.50;;;17.80;65.20;;;;;;10542639;28;20041;-55
2021/05/17 22:34:27;;;;;;;5.32;2.70;;;17.70;65.10;;;;;;10541811;28;20020;-55
2021/05/17 22:39:27;;;;;;;;;;;17.80;65.20;;;;;;10542881;28;20055;-55
2021/05/17 22:44:28;;;;;;;2.50;1.75;;;17.70;65.10;;;;;;10565568;28;19919;-55
2021/05/17 22:49:30;;;;;;;3.67;1.60;;;17.70;65.10;;;;;;10541748;28;20032;-56
2021/05/17 22:54:31;;;;;;;5.25;1.88;;;17.70;65.00;;;;;;10541123;28;20104;-55
2021/05/17 22:59:32;;;;;;;2.97;1.75;;;17.70;65.10;;;;;;10541791;28;20077;-55
2021/05/17 23:04:33;;;;;;;3.17;1.60;;;17.70;64.90;;;;;;10558212;28;20085;-55
2021/05/17 23:09:34;;;;;;;2.78;1.58;;;17.70;64.80;;;;;;10522771;28;20080;-56
2021/05/17 23:14:34;;;;;;;3.22;1.70;;;17.70;64.80;;;;;;10522572;28;20028;-55
2021/05/17 23:19:36;;;;;;;4.70;2.05;;;17.70;64.80;;;;;;10564210;28;20503;-55
2021/05/17 23:29:53;;;;;;;2.95;1.48;;;17.70;64.60;;;;;;10551103;28;20118;-55
2021/05/17 23:34:54;;;;;;;3.80;1.65;;;17.70;64.60;;;;;;10521686;28;20028;-56
2021/05/17 23:39:55;;;;;;;3.08;1.80;;;17.70;64.40;;;;;;10525650;28;20093;-55
2021/05/17 23:44:55;;;;;;;5.35;1.80;;;17.80;64.50;;;;;;10541308;28;20494;-55
2021/05/17 23:49:56;;;;;;;2.30;1.40;;;17.80;64.40;;;;;;10539395;28;20119;-55
2021/05/17 23:54:57;;;;;;;3.83;2.88;;;17.80;64.40;;;;;;10539166;28;20028;-55
2021/05/17 23:59:58;;;;;;;5.45;2.08;;;17.80;64.30;;;;;;10543629;28;20114;-55
